sensor_id;sensor_type;location;lat;lon;timestamp;P1;durP1;ratioP1;P2;durP2;ratioP2
6392;SDS011;3229;42.674;23.282;2023-07-29T00:01:03;5.50;;;3.00;;
6392;SDS011;3229;42.674;23.282;2023-07-29T00:03:30;3.20;;;2.88;;
6392;SDS011;3229;42.674;23.282;2023-07-29T00:05:57;2.75;;;2.55;;
6392;SDS011;3229;42.674;23.282;2023-07-29T00:08:24;3.25;;;2.95;;
6392;SDS011;3229;42.674;23.282;2023-07-29T00:10:49;3.28;;;2.97;;
6392;SDS011;3229;42.674;23.282;2023-07-29T00:13:16;3.88;;;3.15;;
6392;SDS011;3229;42.674;23.282;2023-07-29T00:15:44;2.92;;;2.60;;
6392;SDS011;3229;42.674;23.282;2023-07-29T00:18:11;2.60;;;2.40;;
6392;SDS011;3229;42.674;23.282;2023-07-29T00:20:38;3.00;;;2.80;;
6392;SDS011;3229;42.674;23.282;2023-07-29T00:23:05;3.23;;;2.93;;
6392;SDS011;3229;42.674;23.282;2023-07-29T00:25:32;2.80;;;2.60;;
6392;SDS011;3229;42.674;23.282;2023-07-29T00:27:58;3.47;;;3.10;;
6392;SDS011;3229;42.674;23.282;2023-07-29T00:30:25;6.73;;;2.67;;
6392;SDS011;3229;42.674;23.282;2023-07-29T00:32:53;3.50;;;2.63;;
6392;SDS011;3229;42.674;23.282;2023-07-29T00:35:20;5.53;;;2.70;;
6392;SDS011;3229;42.674;23.282;2023-07-29T00:37:47;3.90;;;3.20;;
6392;SDS011;3229;42.674;23.282;2023-07-29T00:40:15;3.80;;;3.50;;
6392;SDS011;3229;42.674;23.282;2023-07-29T00:42:46;2.83;;;2.63;;
6392;SDS011;3229;42.674;23.282;2023-07-29T00:45:13;3.37;;;2.50;;
6392;SDS011;3229;42.674;23.282;2023-07-29T00:47:40;3.87;;;2.87;;
6392;SDS011;3229;42.674;23.282;2023-07-29T00:50:10;3.93;;;3.13;;
6392;SDS011;3229;42.674;23.282;2023-07-29T00:52:38;4.63;;;3.07;;
6392;SDS011;3229;42.674;23.282;2023-07-29T00:55:05;3.07;;;2.50;;
6392;SDS011;3229;42.674;23.282;2023-07-29T00:57:32;3.23;;;2.93;;
6392;SDS011;3229;42.674;23.282;2023-07-29T00:59:59;3.27;;;2.97;;
6392;SDS011;3229;42.674;23.282;2023-07-29T01:02:28;2.93;;;2.63;;
6392;SDS011;3229;42.674;23.282;2023-07-29T01:04:57;3.93;;;2.87;;
6392;SDS011;3229;42.674;23.282;2023-07-29T01:07:29;3.20;;;2.67;;
6392;SDS011;3229;42.674;23.282;2023-07-29T01:10:00;3.57;;;3.20;;
6392;SDS011;3229;42.674;23.282;2023-07-29T01:12:35;5.50;;;2.83;;
6392;SDS011;3229;42.674;23.282;2023-07-29T01:15:10;3.27;;;2.80;;
6392;SDS011;3229;42.674;23.282;2023-07-29T01:17:42;2.97;;;2.67;;
6392;SDS011;3229;42.674;23.282;2023-07-29T01:20:13;4.33;;;3.23;;
6392;SDS011;3229;42.674;23.282;2023-07-29T01:22:43;4.07;;;3.07;;
6392;SDS011;3229;42.674;23.282;2023-07-29T01:25:12;3.20;;;3.00;;
6392;SDS011;3229;42.674;23.282;2023-07-29T01:27:39;3.03;;;2.73;;
6392;SDS011;3229;42.674;23.282;2023-07-29T01:30:06;3.93;;;2.60;;
6392;SDS011;3229;42.674;23.282;2023-07-29T01:32:36;3.70;;;3.17;;
6392;SDS011;3229;42.674;23.282;2023-07-29T01:35:09;3.30;;;3.00;;
6392;SDS011;3229;42.674;23.282;2023-07-29T01:37:48;3.30;;;3.00;;
6392;SDS011;3229;42.674;23.282;2023-07-29T01:40:19;3.10;;;2.80;;
6392;SDS011;3229;42.674;23.282;2023-07-29T01:42:48;3.13;;;2.93;;
6392;SDS011;3229;42.674;23.282;2023-07-29T01:45:16;3.13;;;2.83;;
6392;SDS011;3229;42.674;23.282;2023-07-29T01:47:43;5.00;;;3.10;;
6392;SDS011;3229;42.674;23.282;2023-07-29T01:50:10;7.27;;;3.23;;
6392;SDS011;3229;42.674;23.282;2023-07-29T01:52:37;2.70;;;2.50;;
6392;SDS011;3229;42.674;23.282;2023-07-29T01:55:04;3.33;;;3.03;;
6392;SDS011;3229;42.674;23.282;2023-07-29T01:57:33;4.27;;;2.83;;
6392;SDS011;3229;42.674;23.282;2023-07-29T01:59:59;3.43;;;3.13;;
6392;SDS011;3229;42.674;23.282;2023-07-29T02:02:27;5.83;;;3.10;;
6392;SDS011;3229;42.674;23.282;2023-07-29T02:04:54;3.07;;;2.83;;
6392;SDS011;3229;42.674;23.282;2023-07-29T02:07:21;5.10;;;3.07;;
6392;SDS011;3229;42.674;23.282;2023-07-29T02:09:47;3.13;;;2.90;;
6392;SDS011;3229;42.674;23.282;2023-07-29T02:12:14;2.93;;;2.73;;
6392;SDS011;3229;42.674;23.282;2023-07-29T02:14:42;5.37;;;3.00;;
6392;SDS011;3229;42.674;23.282;2023-07-29T02:17:09;3.50;;;3.20;;
6392;SDS011;3229;42.674;23.282;2023-07-29T02:19:36;3.37;;;3.07;;
6392;SDS011;3229;42.674;23.282;2023-07-29T02:22:03;3.10;;;2.80;;
6392;SDS011;3229;42.674;23.282;2023-07-29T02:24:30;3.83;;;3.20;;
6392;SDS011;3229;42.674;23.282;2023-07-29T02:26:56;3.10;;;2.90;;
6392;SDS011;3229;42.674;23.282;2023-07-29T02:29:23;3.97;;;2.93;;
6392;SDS011;3229;42.674;23.282;2023-07-29T02:31:52;3.83;;;3.30;;
6392;SDS011;3229;42.674;23.282;2023-07-29T02:34:18;3.80;;;3.50;;
6392;SDS011;3229;42.674;23.282;2023-07-29T02:36:45;3.90;;;2.90;;
6392;SDS011;3229;42.674;23.282;2023-07-29T02:39:12;3.17;;;2.97;;
6392;SDS011;3229;42.674;23.282;2023-07-29T02:41:38;3.50;;;3.20;;
6392;SDS011;3229;42.674;23.282;2023-07-29T02:44:05;3.87;;;3.47;;
6392;SDS011;3229;42.674;23.282;2023-07-29T02:46:32;6.60;;;3.77;;
6392;SDS011;3229;42.674;23.282;2023-07-29T02:49:01;3.37;;;3.07;;
6392;SDS011;3229;42.674;23.282;2023-07-29T02:51:28;3.13;;;2.80;;
6392;SDS011;3229;42.674;23.282;2023-07-29T02:53:55;3.27;;;3.00;;
6392;SDS011;3229;42.674;23.282;2023-07-29T02:56:22;3.53;;;3.23;;
6392;SDS011;3229;42.674;23.282;2023-07-29T02:58:48;6.37;;;3.23;;
6392;SDS011;3229;42.674;23.282;2023-07-29T03:01:16;8.23;;;3.40;;
6392;SDS011;3229;42.674;23.282;2023-07-29T03:03:43;4.77;;;3.40;;
6392;SDS011;3229;42.674;23.282;2023-07-29T03:06:12;7.23;;;3.57;;
6392;SDS011;3229;42.674;23.282;2023-07-29T03:08:40;3.83;;;3.53;;
6392;SDS011;3229;42.674;23.282;2023-07-29T03:11:07;5.23;;;4.33;;
6392;SDS011;3229;42.674;23.282;2023-07-29T03:13:35;5.93;;;3.40;;
6392;SDS011;3229;42.674;23.282;2023-07-29T03:16:05;5.07;;;3.77;;
6392;SDS011;3229;42.674;23.282;2023-07-29T03:18:32;4.77;;;3.40;;
6392;SDS011;3229;42.674;23.282;2023-07-29T03:20:59;4.40;;;4.00;;
6392;SDS011;3229;42.674;23.282;2023-07-29T03:23:28;8.03;;;4.23;;
6392;SDS011;3229;42.674;23.282;2023-07-29T03:25:55;6.90;;;4.13;;
6392;SDS011;3229;42.674;23.282;2023-07-29T03:28:23;4.90;;;3.90;;
6392;SDS011;3229;42.674;23.282;2023-07-29T03:30:52;4.97;;;4.37;;
6392;SDS011;3229;42.674;23.282;2023-07-29T03:33:19;9.90;;;4.10;;
6392;SDS011;3229;42.674;23.282;2023-07-29T03:35:46;6.33;;;3.97;;
6392;SDS011;3229;42.674;23.282;2023-07-29T03:38:12;7.70;;;4.50;;
6392;SDS011;3229;42.674;23.282;2023-07-29T03:40:41;6.60;;;4.40;;
6392;SDS011;3229;42.674;23.282;2023-07-29T03:43:09;6.87;;;4.30;;
6392;SDS011;3229;42.674;23.282;2023-07-29T03:45:35;7.60;;;4.40;;
6392;SDS011;3229;42.674;23.282;2023-07-29T03:48:03;6.77;;;4.20;;
6392;SDS011;3229;42.674;23.282;2023-07-29T03:50:32;9.07;;;4.57;;
6392;SDS011;3229;42.674;23.282;2023-07-29T03:53:00;7.53;;;4.27;;
6392;SDS011;3229;42.674;23.282;2023-07-29T03:55:27;5.97;;;4.30;;
6392;SDS011;3229;42.674;23.282;2023-07-29T03:57:56;7.50;;;4.30;;
6392;SDS011;3229;42.674;23.282;2023-07-29T04:00:23;5.53;;;3.73;;
6392;SDS011;3229;42.674;23.282;2023-07-29T04:02:50;6.63;;;4.30;;
6392;SDS011;3229;42.674;23.282;2023-07-29T04:05:17;9.03;;;4.23;;
6392;SDS011;3229;42.674;23.282;2023-07-29T04:07:44;7.53;;;4.13;;
6392;SDS011;3229;42.674;23.282;2023-07-29T04:10:11;5.90;;;4.63;;
6392;SDS011;3229;42.674;23.282;2023-07-29T04:12:38;5.83;;;4.07;;
6392;SDS011;3229;42.674;23.282;2023-07-29T04:15:06;4.47;;;3.77;;
6392;SDS011;3229;42.674;23.282;2023-07-29T04:17:34;5.87;;;4.13;;
6392;SDS011;3229;42.674;23.282;2023-07-29T04:20:00;6.70;;;4.00;;
6392;SDS011;3229;42.674;23.282;2023-07-29T04:22:28;5.63;;;3.87;;
6392;SDS011;3229;42.674;23.282;2023-07-29T04:24:54;4.33;;;3.93;;
6392;SDS011;3229;42.674;23.282;2023-07-29T04:27:21;6.60;;;4.07;;
6392;SDS011;3229;42.674;23.282;2023-07-29T04:29:48;5.00;;;3.60;;
6392;SDS011;3229;42.674;23.282;2023-07-29T04:32:16;5.73;;;3.80;;
6392;SDS011;3229;42.674;23.282;2023-07-29T04:34:43;4.57;;;4.17;;
6392;SDS011;3229;42.674;23.282;2023-07-29T04:37:09;4.33;;;3.93;;
6392;SDS011;3229;42.674;23.282;2023-07-29T04:39:36;4.10;;;3.70;;
6392;SDS011;3229;42.674;23.282;2023-07-29T04:42:03;8.97;;;3.67;;
6392;SDS011;3229;42.674;23.282;2023-07-29T04:44:31;5.50;;;3.90;;
6392;SDS011;3229;42.674;23.282;2023-07-29T04:46:59;4.30;;;3.80;;
6392;SDS011;3229;42.674;23.282;2023-07-29T04:49:27;7.13;;;3.70;;
6392;SDS011;3229;42.674;23.282;2023-07-29T04:51:55;8.17;;;3.60;;
6392;SDS011;3229;42.674;23.282;2023-07-29T04:54:22;9.43;;;3.73;;
6392;SDS011;3229;42.674;23.282;2023-07-29T04:56:49;4.87;;;3.53;;
6392;SDS011;3229;42.674;23.282;2023-07-29T04:59:16;6.07;;;4.47;;
6392;SDS011;3229;42.674;23.282;2023-07-29T05:01:46;8.53;;;5.03;;
6392;SDS011;3229;42.674;23.282;2023-07-29T05:04:13;6.00;;;4.43;;
6392;SDS011;3229;42.674;23.282;2023-07-29T05:06:42;4.67;;;3.70;;
6392;SDS011;3229;42.674;23.282;2023-07-29T05:09:15;7.93;;;4.93;;
6392;SDS011;3229;42.674;23.282;2023-07-29T05:11:43;5.93;;;4.13;;
6392;SDS011;3229;42.674;23.282;2023-07-29T05:14:11;5.55;;;4.63;;
6392;SDS011;3229;42.674;23.282;2023-07-29T05:16:37;5.83;;;4.40;;
6392;SDS011;3229;42.674;23.282;2023-07-29T05:19:04;9.05;;;4.35;;
6392;SDS011;3229;42.674;23.282;2023-07-29T05:21:31;9.07;;;4.78;;
6392;SDS011;3229;42.674;23.282;2023-07-29T05:23:59;6.40;;;4.78;;
6392;SDS011;3229;42.674;23.282;2023-07-29T05:26:26;7.40;;;4.88;;
6392;SDS011;3229;42.674;23.282;2023-07-29T05:28:53;6.30;;;4.53;;
6392;SDS011;3229;42.674;23.282;2023-07-29T05:31:20;6.78;;;4.50;;
6392;SDS011;3229;42.674;23.282;2023-07-29T05:33:46;11.07;;;5.13;;
6392;SDS011;3229;42.674;23.282;2023-07-29T05:36:13;7.07;;;4.75;;
6392;SDS011;3229;42.674;23.282;2023-07-29T05:38:40;9.55;;;4.03;;
6392;SDS011;3229;42.674;23.282;2023-07-29T05:41:08;6.25;;;4.55;;
6392;SDS011;3229;42.674;23.282;2023-07-29T05:43:36;5.30;;;4.35;;
6392;SDS011;3229;42.674;23.282;2023-07-29T05:46:03;7.32;;;4.30;;
6392;SDS011;3229;42.674;23.282;2023-07-29T05:48:30;5.47;;;3.95;;
6392;SDS011;3229;42.674;23.282;2023-07-29T05:50:58;8.55;;;5.10;;
6392;SDS011;3229;42.674;23.282;2023-07-29T05:53:24;8.73;;;4.72;;
6392;SDS011;3229;42.674;23.282;2023-07-29T05:55:51;7.25;;;4.22;;
6392;SDS011;3229;42.674;23.282;2023-07-29T05:58:19;7.40;;;4.45;;
6392;SDS011;3229;42.674;23.282;2023-07-29T06:00:46;6.45;;;5.03;;
6392;SDS011;3229;42.674;23.282;2023-07-29T06:03:13;7.80;;;4.07;;
6392;SDS011;3229;42.674;23.282;2023-07-29T06:05:40;8.55;;;4.72;;
6392;SDS011;3229;42.674;23.282;2023-07-29T06:08:06;8.48;;;4.35;;
6392;SDS011;3229;42.674;23.282;2023-07-29T06:10:34;4.85;;;4.35;;
6392;SDS011;3229;42.674;23.282;2023-07-29T06:13:01;6.50;;;5.05;;
6392;SDS011;3229;42.674;23.282;2023-07-29T06:15:29;10.70;;;5.13;;
6392;SDS011;3229;42.674;23.282;2023-07-29T06:17:55;9.15;;;5.10;;
6392;SDS011;3229;42.674;23.282;2023-07-29T06:20:22;8.18;;;4.70;;
6392;SDS011;3229;42.674;23.282;2023-07-29T06:22:49;9.32;;;4.82;;
6392;SDS011;3229;42.674;23.282;2023-07-29T06:25:16;5.97;;;4.40;;
6392;SDS011;3229;42.674;23.282;2023-07-29T06:27:43;9.35;;;4.68;;
6392;SDS011;3229;42.674;23.282;2023-07-29T06:30:10;5.25;;;4.28;;
6392;SDS011;3229;42.674;23.282;2023-07-29T06:32:38;4.65;;;4.18;;
6392;SDS011;3229;42.674;23.282;2023-07-29T06:35:05;7.45;;;3.85;;
6392;SDS011;3229;42.674;23.282;2023-07-29T06:37:32;6.40;;;4.05;;
6392;SDS011;3229;42.674;23.282;2023-07-29T06:39:59;6.55;;;4.20;;
6392;SDS011;3229;42.674;23.282;2023-07-29T06:42:26;5.88;;;3.90;;
6392;SDS011;3229;42.674;23.282;2023-07-29T06:44:53;4.80;;;4.00;;
6392;SDS011;3229;42.674;23.282;2023-07-29T06:47:19;11.20;;;4.22;;
6392;SDS011;3229;42.674;23.282;2023-07-29T06:49:47;4.75;;;3.60;;
6392;SDS011;3229;42.674;23.282;2023-07-29T06:52:14;5.70;;;3.70;;
6392;SDS011;3229;42.674;23.282;2023-07-29T06:54:41;4.22;;;3.25;;
6392;SDS011;3229;42.674;23.282;2023-07-29T06:57:08;4.75;;;3.63;;
6392;SDS011;3229;42.674;23.282;2023-07-29T06:59:34;5.03;;;3.50;;
6392;SDS011;3229;42.674;23.282;2023-07-29T07:02:01;7.38;;;3.72;;
6392;SDS011;3229;42.674;23.282;2023-07-29T07:04:28;6.18;;;3.15;;
6392;SDS011;3229;42.674;23.282;2023-07-29T07:06:56;4.07;;;3.08;;
6392;SDS011;3229;42.674;23.282;2023-07-29T07:09:23;4.38;;;3.63;;
6392;SDS011;3229;42.674;23.282;2023-07-29T07:11:50;4.55;;;3.80;;
6392;SDS011;3229;42.674;23.282;2023-07-29T07:14:17;4.00;;;3.17;;
6392;SDS011;3229;42.674;23.282;2023-07-29T07:16:45;5.47;;;3.78;;
6392;SDS011;3229;42.674;23.282;2023-07-29T07:19:14;5.30;;;3.38;;
6392;SDS011;3229;42.674;23.282;2023-07-29T07:21:41;7.22;;;3.58;;
6392;SDS011;3229;42.674;23.282;2023-07-29T07:24:09;10.75;;;4.03;;
6392;SDS011;3229;42.674;23.282;2023-07-29T07:26:36;4.95;;;3.28;;
6392;SDS011;3229;42.674;23.282;2023-07-29T07:29:03;6.47;;;3.88;;
6392;SDS011;3229;42.674;23.282;2023-07-29T07:31:32;7.75;;;3.47;;
6392;SDS011;3229;42.674;23.282;2023-07-29T07:34:00;4.25;;;3.28;;
6392;SDS011;3229;42.674;23.282;2023-07-29T07:36:28;5.25;;;3.53;;
6392;SDS011;3229;42.674;23.282;2023-07-29T07:38:55;4.85;;;3.67;;
6392;SDS011;3229;42.674;23.282;2023-07-29T07:41:24;7.93;;;3.70;;
6392;SDS011;3229;42.674;23.282;2023-07-29T07:43:51;6.85;;;3.78;;
6392;SDS011;3229;42.674;23.282;2023-07-29T07:46:17;3.95;;;3.20;;
6392;SDS011;3229;42.674;23.282;2023-07-29T07:48:46;5.35;;;3.58;;
6392;SDS011;3229;42.674;23.282;2023-07-29T07:51:14;6.55;;;3.47;;
6392;SDS011;3229;42.674;23.282;2023-07-29T07:53:41;3.70;;;3.40;;
6392;SDS011;3229;42.674;23.282;2023-07-29T07:56:08;5.38;;;3.58;;
6392;SDS011;3229;42.674;23.282;2023-07-29T07:58:36;5.53;;;3.13;;
6392;SDS011;3229;42.674;23.282;2023-07-29T08:01:04;5.05;;;3.45;;
6392;SDS011;3229;42.674;23.282;2023-07-29T08:03:32;6.18;;;3.42;;
6392;SDS011;3229;42.674;23.282;2023-07-29T08:06:00;5.93;;;3.47;;
6392;SDS011;3229;42.674;23.282;2023-07-29T08:08:27;7.13;;;3.28;;
6392;SDS011;3229;42.674;23.282;2023-07-29T08:10:54;6.22;;;3.67;;
6392;SDS011;3229;42.674;23.282;2023-07-29T08:13:22;5.45;;;3.67;;
6392;SDS011;3229;42.674;23.282;2023-07-29T08:15:51;3.38;;;3.05;;
6392;SDS011;3229;42.674;23.282;2023-07-29T08:18:19;5.78;;;3.90;;
6392;SDS011;3229;42.674;23.282;2023-07-29T08:20:52;3.58;;;3.10;;
6392;SDS011;3229;42.674;23.282;2023-07-29T08:23:20;6.30;;;3.85;;
6392;SDS011;3229;42.674;23.282;2023-07-29T08:25:52;4.28;;;3.35;;
6392;SDS011;3229;42.674;23.282;2023-07-29T08:28:21;4.88;;;3.63;;
6392;SDS011;3229;42.674;23.282;2023-07-29T08:30:48;3.55;;;3.22;;
6392;SDS011;3229;42.674;23.282;2023-07-29T08:33:17;5.75;;;3.38;;
6392;SDS011;3229;42.674;23.282;2023-07-29T08:35:45;7.97;;;3.85;;
6392;SDS011;3229;42.674;23.282;2023-07-29T08:38:13;3.25;;;2.90;;
6392;SDS011;3229;42.674;23.282;2023-07-29T08:40:42;5.97;;;3.13;;
6392;SDS011;3229;42.674;23.282;2023-07-29T08:43:12;7.40;;;3.10;;
6392;SDS011;3229;42.674;23.282;2023-07-29T08:45:43;4.40;;;3.28;;
6392;SDS011;3229;42.674;23.282;2023-07-29T08:48:11;4.30;;;3.63;;
6392;SDS011;3229;42.674;23.282;2023-07-29T08:50:43;5.45;;;3.50;;
6392;SDS011;3229;42.674;23.282;2023-07-29T08:53:11;9.32;;;3.50;;
6392;SDS011;3229;42.674;23.282;2023-07-29T08:55:39;3.70;;;3.20;;
6392;SDS011;3229;42.674;23.282;2023-07-29T08:58:06;6.07;;;3.25;;
6392;SDS011;3229;42.674;23.282;2023-07-29T09:00:34;4.32;;;2.70;;
6392;SDS011;3229;42.674;23.282;2023-07-29T09:03:01;7.55;;;2.63;;
6392;SDS011;3229;42.674;23.282;2023-07-29T09:05:32;4.10;;;2.50;;
6392;SDS011;3229;42.674;23.282;2023-07-29T09:08:00;3.22;;;2.53;;
6392;SDS011;3229;42.674;23.282;2023-07-29T09:10:29;7.53;;;2.42;;
6392;SDS011;3229;42.674;23.282;2023-07-29T09:12:56;4.95;;;2.88;;
6392;SDS011;3229;42.674;23.282;2023-07-29T09:15:27;7.90;;;2.80;;
6392;SDS011;3229;42.674;23.282;2023-07-29T09:17:55;9.35;;;2.90;;
6392;SDS011;3229;42.674;23.282;2023-07-29T09:20:25;3.03;;;2.63;;
6392;SDS011;3229;42.674;23.282;2023-07-29T09:22:55;4.13;;;2.30;;
6392;SDS011;3229;42.674;23.282;2023-07-29T09:25:26;2.65;;;2.45;;
6392;SDS011;3229;42.674;23.282;2023-07-29T09:27:55;5.50;;;2.75;;
6392;SDS011;3229;42.674;23.282;2023-07-29T09:30:25;2.50;;;2.30;;
6392;SDS011;3229;42.674;23.282;2023-07-29T09:32:52;3.28;;;2.30;;
6392;SDS011;3229;42.674;23.282;2023-07-29T09:35:21;4.40;;;2.00;;
6392;SDS011;3229;42.674;23.282;2023-07-29T09:37:48;2.22;;;2.00;;
6392;SDS011;3229;42.674;23.282;2023-07-29T09:40:15;2.42;;;2.17;;
6392;SDS011;3229;42.674;23.282;2023-07-29T09:42:48;4.07;;;2.35;;
6392;SDS011;3229;42.674;23.282;2023-07-29T09:45:19;2.53;;;2.33;;
6392;SDS011;3229;42.674;23.282;2023-07-29T09:47:50;2.92;;;2.25;;
6392;SDS011;3229;42.674;23.282;2023-07-29T09:50:17;2.70;;;2.33;;
6392;SDS011;3229;42.674;23.282;2023-07-29T09:52:44;4.32;;;2.20;;
6392;SDS011;3229;42.674;23.282;2023-07-29T09:55:11;2.80;;;1.90;;
6392;SDS011;3229;42.674;23.282;2023-07-29T09:57:39;3.03;;;1.77;;
6392;SDS011;3229;42.674;23.282;2023-07-29T10:00:10;2.58;;;1.92;;
6392;SDS011;3229;42.674;23.282;2023-07-29T10:02:38;6.20;;;1.92;;
6392;SDS011;3229;42.674;23.282;2023-07-29T10:05:06;3.83;;;1.95;;
6392;SDS011;3229;42.674;23.282;2023-07-29T10:07:34;4.50;;;2.00;;
6392;SDS011;3229;42.674;23.282;2023-07-29T10:10:03;6.20;;;2.53;;
6392;SDS011;3229;42.674;23.282;2023-07-29T10:12:31;2.28;;;1.50;;
6392;SDS011;3229;42.674;23.282;2023-07-29T10:14:59;2.10;;;1.90;;
6392;SDS011;3229;42.674;23.282;2023-07-29T10:17:28;4.75;;;2.00;;
6392;SDS011;3229;42.674;23.282;2023-07-29T10:19:56;2.30;;;1.90;;
6392;SDS011;3229;42.674;23.282;2023-07-29T10:22:24;6.93;;;1.70;;
6392;SDS011;3229;42.674;23.282;2023-07-29T10:24:54;4.28;;;2.05;;
6392;SDS011;3229;42.674;23.282;2023-07-29T10:27:25;2.38;;;2.17;;
6392;SDS011;3229;42.674;23.282;2023-07-29T10:29:55;1.55;;;1.45;;
6392;SDS011;3229;42.674;23.282;2023-07-29T10:32:22;3.95;;;1.90;;
6392;SDS011;3229;42.674;23.282;2023-07-29T10:34:53;1.55;;;1.42;;
6392;SDS011;3229;42.674;23.282;2023-07-29T10:37:20;2.05;;;1.70;;
6392;SDS011;3229;42.674;23.282;2023-07-29T10:39:53;1.83;;;1.63;;
6392;SDS011;3229;42.674;23.282;2023-07-29T10:42:20;1.80;;;1.70;;
6392;SDS011;3229;42.674;23.282;2023-07-29T10:44:48;1.63;;;1.50;;
6392;SDS011;3229;42.674;23.282;2023-07-29T10:47:19;1.17;;;1.17;;
6392;SDS011;3229;42.674;23.282;2023-07-29T10:49:49;2.90;;;1.90;;
6392;SDS011;3229;42.674;23.282;2023-07-29T10:52:28;1.55;;;1.30;;
6392;SDS011;3229;42.674;23.282;2023-07-29T10:54:56;1.40;;;1.30;;
6392;SDS011;3229;42.674;23.282;2023-07-29T10:57:30;1.80;;;1.70;;
6392;SDS011;3229;42.674;23.282;2023-07-29T10:59:57;1.13;;;1.08;;
6392;SDS011;3229;42.674;23.282;2023-07-29T11:02:28;1.98;;;1.88;;
6392;SDS011;3229;42.674;23.282;2023-07-29T11:04:56;1.65;;;1.55;;
6392;SDS011;3229;42.674;23.282;2023-07-29T11:07:23;2.05;;;1.77;;
6392;SDS011;3229;42.674;23.282;2023-07-29T11:09:58;3.55;;;1.90;;
6392;SDS011;3229;42.674;23.282;2023-07-29T11:12:40;1.98;;;1.65;;
6392;SDS011;3229;42.674;23.282;2023-07-29T11:15:16;1.63;;;1.50;;
6392;SDS011;3229;42.674;23.282;2023-07-29T11:17:47;2.42;;;2.03;;
6392;SDS011;3229;42.674;23.282;2023-07-29T11:20:16;1.95;;;1.30;;
6392;SDS011;3229;42.674;23.282;2023-07-29T11:22:43;2.28;;;1.60;;
6392;SDS011;3229;42.674;23.282;2023-07-29T11:25:12;1.70;;;1.60;;
6392;SDS011;3229;42.674;23.282;2023-07-29T11:27:40;1.40;;;1.30;;
6392;SDS011;3229;42.674;23.282;2023-07-29T11:30:08;1.80;;;1.70;;
6392;SDS011;3229;42.674;23.282;2023-07-29T11:32:36;3.10;;;1.55;;
6392;SDS011;3229;42.674;23.282;2023-07-29T11:35:04;1.95;;;1.75;;
6392;SDS011;3229;42.674;23.282;2023-07-29T11:37:32;2.28;;;1.63;;
6392;SDS011;3229;42.674;23.282;2023-07-29T11:40:00;2.00;;;1.83;;
6392;SDS011;3229;42.674;23.282;2023-07-29T11:42:31;6.75;;;1.50;;
6392;SDS011;3229;42.674;23.282;2023-07-29T11:44:58;2.90;;;1.60;;
6392;SDS011;3229;42.674;23.282;2023-07-29T11:47:24;1.63;;;1.52;;
6392;SDS011;3229;42.674;23.282;2023-07-29T11:49:52;1.77;;;1.65;;
6392;SDS011;3229;42.674;23.282;2023-07-29T11:52:18;2.10;;;1.83;;
6392;SDS011;3229;42.674;23.282;2023-07-29T11:54:46;2.85;;;1.60;;
6392;SDS011;3229;42.674;23.282;2023-07-29T11:57:14;3.60;;;1.65;;
6392;SDS011;3229;42.674;23.282;2023-07-29T11:59:44;1.80;;;1.70;;
6392;SDS011;3229;42.674;23.282;2023-07-29T12:02:13;1.85;;;1.60;;
6392;SDS011;3229;42.674;23.282;2023-07-29T12:04:42;2.20;;;1.92;;
6392;SDS011;3229;42.674;23.282;2023-07-29T12:07:12;1.75;;;1.50;;
6392;SDS011;3229;42.674;23.282;2023-07-29T12:09:39;2.72;;;1.75;;
6392;SDS011;3229;42.674;23.282;2023-07-29T12:12:06;1.70;;;1.60;;
6392;SDS011;3229;42.674;23.282;2023-07-29T12:14:34;3.17;;;1.60;;
6392;SDS011;3229;42.674;23.282;2023-07-29T12:17:03;2.90;;;1.90;;
6392;SDS011;3229;42.674;23.282;2023-07-29T12:19:31;1.83;;;1.70;;
6392;SDS011;3229;42.674;23.282;2023-07-29T12:22:00;2.25;;;1.92;;
6392;SDS011;3229;42.674;23.282;2023-07-29T12:24:27;1.63;;;1.52;;
6392;SDS011;3229;42.674;23.282;2023-07-29T12:26:55;1.65;;;1.55;;
6392;SDS011;3229;42.674;23.282;2023-07-29T12:29:22;3.67;;;1.85;;
6392;SDS011;3229;42.674;23.282;2023-07-29T12:31:49;1.58;;;1.48;;
6392;SDS011;3229;42.674;23.282;2023-07-29T12:34:26;1.80;;;1.70;;
6392;SDS011;3229;42.674;23.282;2023-07-29T12:36:55;2.13;;;1.90;;
6392;SDS011;3229;42.674;23.282;2023-07-29T12:39:23;1.70;;;1.60;;
6392;SDS011;3229;42.674;23.282;2023-07-29T12:41:52;1.73;;;1.63;;
6392;SDS011;3229;42.674;23.282;2023-07-29T12:44:20;1.70;;;1.50;;
6392;SDS011;3229;42.674;23.282;2023-07-29T12:46:47;1.83;;;1.65;;
6392;SDS011;3229;42.674;23.282;2023-07-29T12:49:13;2.85;;;1.80;;
6392;SDS011;3229;42.674;23.282;2023-07-29T12:51:41;3.38;;;1.83;;
6392;SDS011;3229;42.674;23.282;2023-07-29T12:54:08;1.73;;;1.63;;
6392;SDS011;3229;42.674;23.282;2023-07-29T12:56:35;1.75;;;1.58;;
6392;SDS011;3229;42.674;23.282;2023-07-29T12:59:02;2.28;;;1.50;;
6392;SDS011;3229;42.674;23.282;2023-07-29T13:01:29;2.15;;;1.88;;
6392;SDS011;3229;42.674;23.282;2023-07-29T13:03:56;2.33;;;2.13;;
6392;SDS011;3229;42.674;23.282;2023-07-29T13:06:22;4.03;;;1.70;;
6392;SDS011;3229;42.674;23.282;2023-07-29T13:08:51;3.58;;;1.60;;
6392;SDS011;3229;42.674;23.282;2023-07-29T13:11:18;1.95;;;1.85;;
6392;SDS011;3229;42.674;23.282;2023-07-29T13:13:45;2.88;;;1.95;;
6392;SDS011;3229;42.674;23.282;2023-07-29T13:16:11;1.88;;;1.50;;
6392;SDS011;3229;42.674;23.282;2023-07-29T13:18:38;4.55;;;1.83;;
6392;SDS011;3229;42.674;23.282;2023-07-29T13:21:05;1.90;;;1.80;;
6392;SDS011;3229;42.674;23.282;2023-07-29T13:23:32;2.30;;;1.73;;
6392;SDS011;3229;42.674;23.282;2023-07-29T13:26:00;7.63;;;1.83;;
6392;SDS011;3229;42.674;23.282;2023-07-29T13:28:27;2.22;;;2.03;;
6392;SDS011;3229;42.674;23.282;2023-07-29T13:30:54;1.83;;;1.67;;
6392;SDS011;3229;42.674;23.282;2023-07-29T13:33:21;2.10;;;1.67;;
6392;SDS011;3229;42.674;23.282;2023-07-29T13:35:47;1.80;;;1.70;;
6392;SDS011;3229;42.674;23.282;2023-07-29T13:38:15;3.40;;;1.50;;
6392;SDS011;3229;42.674;23.282;2023-07-29T13:40:42;2.28;;;1.90;;
6392;SDS011;3229;42.674;23.282;2023-07-29T13:43:10;5.55;;;1.70;;
6392;SDS011;3229;42.674;23.282;2023-07-29T13:45:37;1.65;;;1.55;;
6392;SDS011;3229;42.674;23.282;2023-07-29T13:48:04;2.83;;;1.60;;
6392;SDS011;3229;42.674;23.282;2023-07-29T13:50:31;2.72;;;2.53;;
6392;SDS011;3229;42.674;23.282;2023-07-29T13:52:57;7.43;;;2.97;;
6392;SDS011;3229;42.674;23.282;2023-07-29T13:55:24;4.20;;;2.55;;
6392;SDS011;3229;42.674;23.282;2023-07-29T13:57:52;4.32;;;2.90;;
6392;SDS011;3229;42.674;23.282;2023-07-29T14:00:20;2.88;;;2.35;;
6392;SDS011;3229;42.674;23.282;2023-07-29T14:02:47;4.35;;;2.72;;
6392;SDS011;3229;42.674;23.282;2023-07-29T14:05:14;3.55;;;2.47;;
6392;SDS011;3229;42.674;23.282;2023-07-29T14:07:41;2.40;;;2.00;;
6392;SDS011;3229;42.674;23.282;2023-07-29T14:10:08;2.38;;;2.20;;
6392;SDS011;3229;42.674;23.282;2023-07-29T14:12:35;4.55;;;2.20;;
6392;SDS011;3229;42.674;23.282;2023-07-29T14:15:02;5.05;;;2.70;;
6392;SDS011;3229;42.674;23.282;2023-07-29T14:17:32;4.50;;;2.33;;
6392;SDS011;3229;42.674;23.282;2023-07-29T14:19:59;5.28;;;3.10;;
6392;SDS011;3229;42.674;23.282;2023-07-29T14:22:26;2.50;;;2.30;;
6392;SDS011;3229;42.674;23.282;2023-07-29T14:24:53;8.80;;;4.80;;
6392;SDS011;3229;42.674;23.282;2023-07-29T14:27:19;4.13;;;2.10;;
6392;SDS011;3229;42.674;23.282;2023-07-29T14:29:46;3.65;;;2.75;;
6392;SDS011;3229;42.674;23.282;2023-07-29T14:32:13;2.55;;;2.35;;
6392;SDS011;3229;42.674;23.282;2023-07-29T14:34:41;3.78;;;2.40;;
6392;SDS011;3229;42.674;23.282;2023-07-29T14:37:08;4.35;;;2.67;;
6392;SDS011;3229;42.674;23.282;2023-07-29T14:39:34;3.72;;;2.70;;
6392;SDS011;3229;42.674;23.282;2023-07-29T14:42:01;4.30;;;3.63;;
6392;SDS011;3229;42.674;23.282;2023-07-29T14:44:28;6.30;;;2.90;;
6392;SDS011;3229;42.674;23.282;2023-07-29T14:46:55;2.30;;;2.05;;
6392;SDS011;3229;42.674;23.282;2023-07-29T14:49:22;2.47;;;2.28;;
6392;SDS011;3229;42.674;23.282;2023-07-29T14:51:50;3.17;;;2.17;;
6392;SDS011;3229;42.674;23.282;2023-07-29T14:54:17;3.28;;;2.97;;
6392;SDS011;3229;42.674;23.282;2023-07-29T14:56:43;1.98;;;1.83;;
6392;SDS011;3229;42.674;23.282;2023-07-29T14:59:10;6.15;;;3.13;;
6392;SDS011;3229;42.674;23.282;2023-07-29T15:01:37;6.25;;;3.60;;
6392;SDS011;3229;42.674;23.282;2023-07-29T15:04:04;3.38;;;3.08;;